createdAt,value
2019-04-22T00:01:34.324Z,20.90
2019-04-22T00:03:49.996Z,20.90
2019-04-22T00:06:06.663Z,20.90
2019-04-22T00:08:16.719Z,20.80
2019-04-22T00:10:27.547Z,20.80
2019-04-22T00:12:42.838Z,20.80
2019-04-22T00:14:43.930Z,20.70
2019-04-22T00:16:51.914Z,20.70
2019-04-22T00:21:04.819Z,20.70
2019-04-22T00:23:13.501Z,20.60
2019-04-22T00:25:19.362Z,20.60
2019-04-22T00:27:28.149Z,20.60
2019-04-22T00:29:59.932Z,20.50
2019-04-22T00:31:45.848Z,20.50
2019-04-22T00:33:57.725Z,20.50
2019-04-22T00:36:09.551Z,20.50
2019-04-22T00:38:17.627Z,20.40
2019-04-22T00:40:30.183Z,20.40
2019-04-22T00:42:37.485Z,20.40
2019-04-22T00:44:38.993Z,20.30
2019-04-22T00:46:45.696Z,20.30
2019-04-22T00:49:28.791Z,20.20
2019-04-22T00:53:11.956Z,20.20
2019-04-22T00:57:26.889Z,20.10
2019-04-22T00:59:29.293Z,20.10
2019-04-22T01:01:32.000Z,20.00
2019-04-22T01:05:48.212Z,20.00
2019-04-22T01:08:01.191Z,20.00
2019-04-22T01:12:07.268Z,19.90
2019-04-22T01:14:14.503Z,19.90
2019-04-22T01:16:23.838Z,19.80
2019-04-22T01:18:25.057Z,19.80
2019-04-22T01:22:33.048Z,19.80
2019-04-22T01:24:38.660Z,19.70
2019-04-22T01:26:43.493Z,19.70
2019-04-22T01:28:46.118Z,19.70
2019-04-22T01:30:51.465Z,19.60
2019-04-22T01:32:51.042Z,19.60
2019-04-22T01:35:08.429Z,19.60
2019-04-22T01:37:20.239Z,19.60
2019-04-22T01:39:29.703Z,19.50
2019-04-22T01:41:48.821Z,19.50
2019-04-22T01:43:59.069Z,19.50
2019-04-22T01:45:54.366Z,19.50
2019-04-22T01:48:02.554Z,19.50
2019-04-22T01:50:06.330Z,19.50
2019-04-22T01:56:30.343Z,19.40
2019-04-22T01:58:31.816Z,19.40
2019-04-22T02:00:39.623Z,19.40
2019-04-22T02:02:48.777Z,19.40
2019-04-22T02:04:53.545Z,19.30
2019-04-22T02:07:07.078Z,19.30
2019-04-22T02:09:20.387Z,19.30
2019-04-22T02:11:15.953Z,19.20
2019-04-22T02:13:23.432Z,19.20
2019-04-22T02:15:31.438Z,19.20
2019-04-22T02:17:38.305Z,19.20
2019-04-22T02:19:51.758Z,19.10
2019-04-22T02:21:50.574Z,19.10
2019-04-22T02:23:57.635Z,19.10
2019-04-22T02:28:16.495Z,19.00
2019-04-22T02:30:16.617Z,19.00
2019-04-22T02:32:41.732Z,19.00
2019-04-22T02:36:43.287Z,18.90
2019-04-22T02:38:58.998Z,18.90
2019-04-22T02:41:21.043Z,18.80
2019-04-22T02:43:01.410Z,18.80
2019-04-22T02:44:58.500Z,18.80
2019-04-22T02:47:18.356Z,18.80
2019-04-22T02:49:25.091Z,18.70
2019-04-22T02:55:41.263Z,18.70
2019-04-22T03:00:00.968Z,18.60
2019-04-22T03:01:54.234Z,18.60
2019-04-22T03:08:24.004Z,18.50
2019-04-22T03:10:37.928Z,18.50
2019-04-22T03:14:45.976Z,18.40
2019-04-22T03:16:44.811Z,18.40
2019-04-22T03:21:07.373Z,18.30
2019-04-22T03:38:41.849Z,18.10
2019-04-22T03:51:16.537Z,17.90
2019-04-22T03:53:29.283Z,17.90
2019-04-22T03:55:22.935Z,17.90
2019-04-22T03:59:41.264Z,17.80
2019-04-22T04:01:55.936Z,17.80
2019-04-22T04:04:02.961Z,17.80
2019-04-22T04:08:05.708Z,17.70
2019-04-22T04:10:25.879Z,17.70
2019-04-22T04:12:21.583Z,17.70
2019-04-22T04:14:26.341Z,17.60
2019-04-22T04:20:49.024Z,17.60
2019-04-22T04:25:24.943Z,17.50
2019-04-22T04:27:25.224Z,17.50
2019-04-22T04:29:26.328Z,17.40
2019-04-22T04:31:24.543Z,17.40
2019-04-22T04:33:23.296Z,17.40
2019-04-22T04:37:44.601Z,17.40
2019-04-22T04:39:53.353Z,17.40
2019-04-22T04:48:14.368Z,17.30
2019-04-22T04:52:39.811Z,17.30
2019-04-22T04:57:14.993Z,17.20
2019-04-22T05:00:58.156Z,17.20
2019-04-22T05:02:58.436Z,17.20
2019-04-22T05:07:18.777Z,17.10
2019-04-22T05:11:37.312Z,17.10
2019-04-22T05:13:40.012Z,17.10
2019-04-22T05:19:51.634Z,17.10
2019-04-22T05:21:58.203Z,17.10
2019-04-22T05:26:16.516Z,17.10
2019-04-22T05:28:10.558Z,17.10
2019-04-22T05:30:26.657Z,17.10
2019-04-22T05:32:24.560Z,17.10
2019-04-22T05:34:34.893Z,17.10
2019-04-22T05:36:42.636Z,17.10
2019-04-22T05:38:49.410Z,17.10
2019-04-22T05:40:54.552Z,17.20
2019-04-22T05:42:57.574Z,17.20
2019-04-22T05:45:10.203Z,17.20
2019-04-22T05:47:08.547Z,17.20
2019-04-22T05:49:19.334Z,17.30
2019-04-22T05:51:29.429Z,17.40
2019-04-22T05:53:34.412Z,17.50
2019-04-22T05:55:41.542Z,17.50
2019-04-22T05:57:37.225Z,17.60
2019-04-22T05:59:57.247Z,17.70
2019-04-22T06:04:05.285Z,17.90
2019-04-22T06:06:12.764Z,18.00
2019-04-22T06:08:19.638Z,18.10
2019-04-22T06:10:29.346Z,18.20
2019-04-22T06:12:20.908Z,18.30
2019-04-22T06:14:30.853Z,18.40
2019-04-22T06:16:44.334Z,18.40
2019-04-22T06:18:46.945Z,18.50
2019-04-22T06:21:00.495Z,18.60
2019-04-22T06:23:04.548Z,18.60
2019-04-22T06:25:20.139Z,18.70
2019-04-22T06:27:26.722Z,18.80
2019-04-22T06:29:25.041Z,18.90
2019-04-22T06:33:45.916Z,19.00
2019-04-22T06:38:14.559Z,19.10
2019-04-22T06:39:59.371Z,19.20
2019-04-22T06:42:08.724Z,19.20
2019-04-22T06:46:20.846Z,19.30
2019-04-22T06:48:35.758Z,19.40
2019-04-22T06:50:44.831Z,19.40
2019-04-22T06:52:51.970Z,19.40
2019-04-22T06:54:59.446Z,19.40
2019-04-22T06:57:25.976Z,19.40
2019-04-22T06:59:30.092Z,19.50
2019-04-22T07:03:47.602Z,19.50
2019-04-22T07:06:03.990Z,19.60
2019-04-22T07:08:18.273Z,19.70
2019-04-22T07:10:22.194Z,19.70
2019-04-22T07:12:24.414Z,19.80
2019-04-22T07:14:28.610Z,19.90
2019-04-22T07:16:38.154Z,20.00
2019-04-22T07:18:54.511Z,20.10
2019-04-22T07:21:04.261Z,20.10
2019-04-22T07:23:13.776Z,20.20
2019-04-22T07:25:23.492Z,20.30
2019-04-22T07:27:38.933Z,20.40
2019-04-22T07:29:46.790Z,20.50
2019-04-22T07:31:53.053Z,20.70
2019-04-22T07:34:16.074Z,20.80
2019-04-22T07:36:30.920Z,20.90
2019-04-22T07:38:25.665Z,21.10
2019-04-22T07:40:34.104Z,21.20
2019-04-22T07:42:36.665Z,21.40
2019-04-22T07:46:57.331Z,21.60
2019-04-22T07:48:57.764Z,21.70
2019-04-22T07:51:07.688Z,21.80
2019-04-22T07:53:10.701Z,22.00
2019-04-22T07:55:13.455Z,22.10
2019-04-22T07:57:28.395Z,22.20
2019-04-22T07:59:35.210Z,22.30
2019-04-22T08:01:56.211Z,22.40
2019-04-22T08:04:21.301Z,22.50
2019-04-22T08:08:13.101Z,22.80
2019-04-22T08:10:24.464Z,22.90
2019-04-22T08:12:34.951Z,23.00
2019-04-22T08:14:42.370Z,23.10
2019-04-22T08:16:46.610Z,23.30
2019-04-22T08:18:50.451Z,23.40
2019-04-22T08:23:57.031Z,23.60
2019-04-22T08:26:05.368Z,23.70
2019-04-22T08:28:17.476Z,23.80
2019-04-22T08:30:41.462Z,23.90
2019-04-22T08:33:07.171Z,23.90
2019-04-22T08:35:18.091Z,24.00
2019-04-22T08:37:41.557Z,24.10
2019-04-22T08:39:26.773Z,24.10
2019-04-22T08:41:40.168Z,24.20
2019-04-22T08:43:51.522Z,24.30
2019-04-22T08:45:54.531Z,24.30
2019-04-22T08:47:57.839Z,24.40
2019-04-22T08:52:30.109Z,24.60
2019-04-22T08:54:41.016Z,24.80
2019-04-22T09:00:56.981Z,25.10
2019-04-22T09:03:04.630Z,25.20
2019-04-22T09:05:22.824Z,25.30
2019-04-22T09:07:28.895Z,25.40
2019-04-22T09:09:27.033Z,25.50
2019-04-22T09:13:46.351Z,25.70
2019-04-22T09:15:49.603Z,25.70
2019-04-22T09:18:00.415Z,25.80
2019-04-22T09:20:04.696Z,25.90
2019-04-22T09:22:11.225Z,26.00
2019-04-22T09:24:16.102Z,26.00
2019-04-22T09:26:30.630Z,26.00
2019-04-22T09:28:37.703Z,26.00
2019-04-22T09:34:51.432Z,26.10
2019-04-22T09:37:06.220Z,26.10
2019-04-22T09:39:12.289Z,26.10
2019-04-22T09:43:40.660Z,26.00
2019-04-22T09:45:43.200Z,26.00
2019-04-22T09:47:56.909Z,26.00
2019-04-22T09:52:02.964Z,26.00
2019-04-22T09:54:16.737Z,25.90
2019-04-22T09:56:17.561Z,26.00
2019-04-22T09:58:24.884Z,26.00
2019-04-22T10:00:37.556Z,26.00
2019-04-22T10:02:42.706Z,25.90
2019-04-22T10:04:46.647Z,25.90
2019-04-22T10:06:49.553Z,25.90
2019-04-22T10:09:26.958Z,25.90
2019-04-22T10:11:04.540Z,25.90
2019-04-22T10:13:23.631Z,25.80
2019-04-22T10:15:18.634Z,25.90
2019-04-22T10:17:25.768Z,25.80
2019-04-22T10:19:29.718Z,25.80
2019-04-22T10:21:46.272Z,25.80
2019-04-22T10:23:44.387Z,25.80
2019-04-22T10:25:54.105Z,25.90
2019-04-22T10:28:01.621Z,25.90
2019-04-22T10:30:06.062Z,25.90
2019-04-22T10:32:07.084Z,25.90
2019-04-22T10:34:05.820Z,26.00
2019-04-22T10:36:19.528Z,26.00
2019-04-22T10:38:24.494Z,26.10
2019-04-22T10:40:38.747Z,26.20
2019-04-22T10:42:45.329Z,26.20
2019-04-22T10:44:51.761Z,26.20
2019-04-22T10:46:58.053Z,26.30
2019-04-22T10:49:04.150Z,26.40
2019-04-22T10:51:08.994Z,26.40
2019-04-22T10:53:15.399Z,26.40
2019-04-22T10:55:21.312Z,26.50
2019-04-22T10:57:27.584Z,26.50
2019-04-22T10:59:34.407Z,26.60
2019-04-22T11:01:40.262Z,26.60
2019-04-22T11:03:45.647Z,26.70
2019-04-22T11:05:50.641Z,26.70
2019-04-22T11:08:00.830Z,26.70
2019-04-22T11:10:20.548Z,26.70
2019-04-22T11:12:13.637Z,26.80
2019-04-22T11:14:14.900Z,26.90
2019-04-22T11:16:21.305Z,26.90
2019-04-22T11:59:38.556Z,27.50
2019-04-22T12:01:44.654Z,27.50
2019-04-22T12:03:51.782Z,27.60
2019-04-22T12:05:57.873Z,27.60
2019-04-22T12:08:41.438Z,27.60
2019-04-22T12:10:49.223Z,27.60
2019-04-22T12:12:50.072Z,27.70
2019-04-22T12:14:58.439Z,27.70
2019-04-22T12:17:03.909Z,27.70
2019-04-22T12:19:09.279Z,27.70
2019-04-22T12:21:19.252Z,27.70
2019-04-22T12:23:29.297Z,27.70
2019-04-22T12:25:46.520Z,27.70
2019-04-22T12:27:43.032Z,27.60
2019-04-22T12:29:51.091Z,27.60
2019-04-22T12:31:57.796Z,27.60
2019-04-22T12:34:03.697Z,27.60
2019-04-22T12:36:10.917Z,27.60
2019-04-22T12:38:20.295Z,27.50
2019-04-22T12:40:33.763Z,27.50
2019-04-22T12:42:33.270Z,27.40
2019-04-22T12:44:40.513Z,27.40
2019-04-22T12:46:47.982Z,27.30
2019-04-22T12:48:53.955Z,27.20
2019-04-22T12:50:59.043Z,27.20
2019-04-22T12:53:10.883Z,27.10
2019-04-22T12:55:14.408Z,27.00
2019-04-22T12:57:20.694Z,27.00
2019-04-22T12:59:29.923Z,27.00
2019-04-22T13:01:35.174Z,27.00
2019-04-22T13:03:44.774Z,27.00
2019-04-22T13:05:53.857Z,27.00
2019-04-22T13:08:00.090Z,27.20
2019-04-22T13:10:10.676Z,27.20
2019-04-22T13:12:17.147Z,27.30
2019-04-22T13:14:27.241Z,27.40
2019-04-22T13:16:38.558Z,27.40
2019-04-22T13:18:53.079Z,27.40
2019-04-22T13:20:54.773Z,27.50
2019-04-22T13:23:03.927Z,27.50
2019-04-22T13:25:15.614Z,27.60
2019-04-22T13:27:21.245Z,27.60
2019-04-22T13:29:27.586Z,27.70
2019-04-22T13:31:44.760Z,27.70
2019-04-22T13:33:55.252Z,27.70
2019-04-22T13:36:03.754Z,27.70
2019-04-22T13:38:11.124Z,27.80
2019-04-22T13:40:19.256Z,27.90
2019-04-22T13:42:27.667Z,27.90
2019-04-22T13:44:37.726Z,27.90
2019-04-22T13:47:04.108Z,28.00
2019-04-22T13:49:25.202Z,28.00
2019-04-22T13:51:36.207Z,28.00
2019-04-22T13:55:54.839Z,28.00
2019-04-22T13:57:53.929Z,28.10
2019-04-22T13:59:53.536Z,28.10
2019-04-22T14:02:14.635Z,28.10
2019-04-22T14:04:34.692Z,28.10
2019-04-22T14:06:46.971Z,28.10
2019-04-22T14:08:55.667Z,28.20
2019-04-22T14:11:17.043Z,28.20
2019-04-22T14:13:23.853Z,28.20
2019-04-22T14:15:40.142Z,28.30
2019-04-22T14:17:47.476Z,28.30
2019-04-22T14:20:04.793Z,28.30
2019-04-22T14:22:11.778Z,28.30
2019-04-22T14:24:29.904Z,28.40
2019-04-22T14:27:08.776Z,28.40
2019-04-22T14:29:07.898Z,28.40
2019-04-22T14:31:38.329Z,28.40
2019-04-22T14:34:05.311Z,28.40
2019-04-22T14:39:06.014Z,28.40
2019-04-22T14:41:40.706Z,28.50
2019-04-22T14:46:30.156Z,28.50
2019-04-22T14:48:40.506Z,28.50
2019-04-22T14:50:45.211Z,28.50
2019-04-22T14:53:18.877Z,28.50
2019-04-22T14:55:17.513Z,28.50
2019-04-22T14:57:26.740Z,28.50
2019-04-22T14:59:42.076Z,28.50
2019-04-22T15:02:05.746Z,28.50
2019-04-22T15:04:26.795Z,28.50
2019-04-22T15:06:36.372Z,28.50
2019-04-22T15:08:42.933Z,28.50
2019-04-22T15:10:47.750Z,28.50
2019-04-22T15:12:55.432Z,28.50
2019-04-22T15:15:05.737Z,28.50
2019-04-22T15:17:18.761Z,28.50
2019-04-22T15:19:27.574Z,28.50
2019-04-22T15:21:34.528Z,28.50
2019-04-22T15:23:40.467Z,28.50
2019-04-22T15:25:50.752Z,28.40
2019-04-22T15:27:57.338Z,28.40
2019-04-22T15:30:05.581Z,28.50
2019-04-22T15:32:15.682Z,28.50
2019-04-22T15:34:24.980Z,28.50
2019-04-22T15:36:32.766Z,28.40
2019-04-22T15:38:38.373Z,28.50
2019-04-22T15:40:54.676Z,28.40
2019-04-22T15:43:02.553Z,28.40
2019-04-22T15:45:15.021Z,28.50
2019-04-22T15:47:20.623Z,28.50
2019-04-22T15:52:33.807Z,28.50
2019-04-22T15:54:29.899Z,28.40
2019-04-22T15:56:37.041Z,28.50
2019-04-22T15:58:41.957Z,28.50
2019-04-22T16:00:56.413Z,28.40
2019-04-22T16:02:55.236Z,28.50
2019-04-22T16:05:00.135Z,28.50
2019-04-22T16:07:05.158Z,28.50
2019-04-22T16:09:11.041Z,28.50
2019-04-22T16:11:18.141Z,28.50
2019-04-22T16:13:26.461Z,28.50
2019-04-22T16:15:30.717Z,28.40
2019-04-22T16:17:36.902Z,28.40
2019-04-22T16:19:43.256Z,28.40
2019-04-22T16:21:55.494Z,28.40
2019-04-22T16:24:09.075Z,28.40
2019-04-22T16:26:33.068Z,28.30
2019-04-22T16:28:37.854Z,28.30
2019-04-22T16:30:43.627Z,28.30
2019-04-22T16:32:49.471Z,28.20
2019-04-22T16:34:54.650Z,28.20
2019-04-22T16:37:00.720Z,28.20
2019-04-22T16:39:08.998Z,28.20
2019-04-22T16:41:14.743Z,28.20
2019-04-22T16:43:20.713Z,28.20
2019-04-22T16:45:25.504Z,28.10
2019-04-22T16:47:31.374Z,28.10
2019-04-22T16:49:37.350Z,28.10
2019-04-22T16:51:42.309Z,28.10
2019-04-22T16:53:47.532Z,28.00
2019-04-22T16:55:52.995Z,28.00
2019-04-22T16:57:58.727Z,28.00
2019-04-22T17:00:07.009Z,28.00
2019-04-22T17:02:14.832Z,27.90
2019-04-22T17:04:34.545Z,27.90
2019-04-22T17:06:41.496Z,27.90
2019-04-22T17:08:46.923Z,27.90
2019-04-22T17:10:51.871Z,27.90
2019-04-22T17:13:03.744Z,27.80
2019-04-22T17:15:11.956Z,27.80
2019-04-22T17:17:15.140Z,27.70
2019-04-22T17:19:21.527Z,27.70
2019-04-22T17:21:27.648Z,27.70
2019-04-22T17:23:33.915Z,27.70
2019-04-22T17:25:38.737Z,27.70
2019-04-22T17:27:43.534Z,27.70
2019-04-22T17:29:48.473Z,27.60
2019-04-22T17:32:02.966Z,27.60
2019-04-22T17:33:59.644Z,27.60
2019-04-22T17:36:05.436Z,27.50
2019-04-22T17:38:22.513Z,27.50
2019-04-22T17:40:33.045Z,27.50
2019-04-22T17:42:42.254Z,27.40
2019-04-22T17:44:57.166Z,27.30
2019-04-22T17:46:56.086Z,27.30
2019-04-22T17:49:18.937Z,27.30
2019-04-22T17:51:30.148Z,27.20
2019-04-22T17:53:34.835Z,27.20
2019-04-22T17:55:40.432Z,27.10
2019-04-22T17:57:38.417Z,27.10
2019-04-22T17:59:47.670Z,27.00
2019-04-22T18:01:53.998Z,27.00
2019-04-22T18:03:48.575Z,26.90
2019-04-22T18:05:55.437Z,26.90
2019-04-22T18:08:17.760Z,26.80
2019-04-22T18:10:33.027Z,26.80
2019-04-22T18:12:38.578Z,26.70
2019-04-22T18:16:48.653Z,26.60
2019-04-22T18:18:55.247Z,26.60
2019-04-22T18:20:52.144Z,26.60
2019-04-22T18:22:54.288Z,26.50
2019-04-22T18:25:04.838Z,26.50
2019-04-22T18:27:31.861Z,26.40
2019-04-22T18:29:23.932Z,26.40
2019-04-22T18:31:21.545Z,26.30
2019-04-22T18:33:32.849Z,26.30
2019-04-22T18:35:42.045Z,26.20
2019-04-22T18:37:48.166Z,26.20
2019-04-22T18:39:58.380Z,26.10
2019-04-22T18:42:00.510Z,26.10
2019-04-22T18:44:09.990Z,26.00
2019-04-22T18:46:19.048Z,25.90
2019-04-22T18:48:12.209Z,25.90
2019-04-22T18:50:37.068Z,25.90
2019-04-22T18:52:49.255Z,25.80
2019-04-22T18:54:55.251Z,25.80
2019-04-22T18:57:02.664Z,25.70
2019-04-22T18:58:59.435Z,25.60
2019-04-22T19:00:57.646Z,25.60
2019-04-22T19:03:09.803Z,25.60
2019-04-22T19:05:22.278Z,25.50
2019-04-22T19:07:46.391Z,25.40
2019-04-22T19:10:01.603Z,25.40
2019-04-22T19:12:08.836Z,25.40
2019-04-22T19:16:33.405Z,25.30
2019-04-22T19:18:22.182Z,25.20
2019-04-22T19:20:27.197Z,25.10
2019-04-22T19:22:29.876Z,25.10
2019-04-22T19:24:28.960Z,25.00
2019-04-22T19:26:52.949Z,25.00
2019-04-22T19:28:46.471Z,24.90
2019-04-22T19:30:56.362Z,24.90
2019-04-22T19:33:04.703Z,24.90
2019-04-22T19:35:06.913Z,24.80
2019-04-22T19:37:14.497Z,24.80
2019-04-22T19:39:13.200Z,24.70
2019-04-22T19:43:33.126Z,24.60
2019-04-22T19:45:37.044Z,24.60
2019-04-22T19:47:50.086Z,24.50
2019-04-22T19:49:57.961Z,24.40
2019-04-22T19:54:13.940Z,24.30
2019-04-22T19:56:17.982Z,24.30
2019-04-22T19:58:28.071Z,24.20
2019-04-22T20:00:49.316Z,24.20
2019-04-22T20:03:25.383Z,24.10
2019-04-22T20:05:43.336Z,24.10
2019-04-22T20:07:43.134Z,24.00
2019-04-22T20:09:55.497Z,24.00
2019-04-22T20:12:01.131Z,23.90
2019-04-22T20:14:06.401Z,23.90
2019-04-22T20:16:01.738Z,23.80
2019-04-22T20:18:29.663Z,23.70
2019-04-22T20:20:33.002Z,23.70
2019-04-22T20:22:33.008Z,23.70
2019-04-22T20:24:28.221Z,23.60
2019-04-22T20:26:54.270Z,23.60
2019-04-22T20:28:52.756Z,23.50
2019-04-22T20:31:03.788Z,23.50
2019-04-22T20:33:05.370Z,23.50
2019-04-22T20:35:16.248Z,23.40
2019-04-22T20:37:30.091Z,23.40
2019-04-22T20:39:36.734Z,23.40
2019-04-22T20:41:33.837Z,23.30
2019-04-22T20:43:46.966Z,23.30
2019-04-22T20:45:54.486Z,23.20
2019-04-22T20:47:49.195Z,23.20
2019-04-22T20:50:05.514Z,23.20
2019-04-22T20:52:16.384Z,23.10
2019-04-22T20:54:17.397Z,23.10
2019-04-22T20:56:18.630Z,23.00
2019-04-22T20:58:30.200Z,23.00
2019-04-22T21:00:32.612Z,22.90
2019-04-22T21:02:32.340Z,22.90
2019-04-22T21:04:38.178Z,22.90
2019-04-22T21:06:51.567Z,22.90
2019-04-22T21:09:02.227Z,22.80
2019-04-22T21:11:04.358Z,22.70
2019-04-22T21:13:06.981Z,22.70
2019-04-22T21:15:28.486Z,22.70
2019-04-22T21:17:31.190Z,22.60
2019-04-22T21:19:41.706Z,22.60
2019-04-22T21:21:46.386Z,22.60
2019-04-22T21:23:42.101Z,22.50
2019-04-22T21:25:54.318Z,22.50
2019-04-22T21:28:04.567Z,22.50
2019-04-22T21:29:58.618Z,22.40
2019-04-22T21:32:13.961Z,22.40
2019-04-22T21:34:18.973Z,22.30
2019-04-22T21:36:33.821Z,22.30
2019-04-22T21:38:32.552Z,22.30
2019-04-22T21:40:39.801Z,22.20
2019-04-22T21:42:58.301Z,22.20
2019-04-22T21:44:48.039Z,22.20
2019-04-22T21:47:03.046Z,22.10
2019-04-22T21:49:06.278Z,22.10
2019-04-22T21:51:21.284Z,22.00
2019-04-22T21:53:25.508Z,22.00
2019-04-22T21:55:29.755Z,22.00
2019-04-22T21:57:48.590Z,22.00
2019-04-22T21:59:46.391Z,22.00
2019-04-22T22:02:04.524Z,21.90
2019-04-22T22:04:05.308Z,21.80
2019-04-22T22:06:06.195Z,21.80
2019-04-22T22:08:23.142Z,21.80
2019-04-22T22:10:34.135Z,21.70
2019-04-22T22:12:46.023Z,21.70
2019-04-22T22:14:46.459Z,21.70
2019-04-22T22:16:43.440Z,21.70
2019-04-22T22:19:00.805Z,21.60
2019-04-22T22:21:19.653Z,21.60
2019-04-22T22:23:22.290Z,21.60
2019-04-22T22:25:14.292Z,21.60
2019-04-22T22:27:24.967Z,21.50
2019-04-22T22:29:46.718Z,21.50
2019-04-22T22:31:52.887Z,21.50
2019-04-22T22:33:52.490Z,21.50
2019-04-22T22:35:58.172Z,21.40
2019-04-22T22:38:09.104Z,21.40
2019-04-22T22:40:03.394Z,21.30
2019-04-22T22:42:01.849Z,21.30
2019-04-22T22:44:15.375Z,21.30
2019-04-22T22:46:26.954Z,21.20
2019-04-22T22:48:46.056Z,21.20
2019-04-22T22:50:43.898Z,21.20
2019-04-22T22:53:02.365Z,21.10
2019-04-22T22:54:58.824Z,21.10
2019-04-22T22:57:08.781Z,21.10
2019-04-22T22:59:08.149Z,21.10
2019-04-22T23:01:14.690Z,21.10
2019-04-22T23:03:48.330Z,21.00
2019-04-22T23:05:41.686Z,21.00
2019-04-22T23:07:42.779Z,20.90
2019-04-22T23:09:43.783Z,20.90
2019-04-22T23:13:56.883Z,20.80
2019-04-22T23:15:58.410Z,20.70
2019-04-22T23:17:50.021Z,20.70
2019-04-22T23:19:57.947Z,20.60
2019-04-22T23:22:13.972Z,20.60
2019-04-22T23:24:29.751Z,20.50
2019-04-22T23:26:41.901Z,20.50
2019-04-22T23:28:43.086Z,20.50
2019-04-22T23:30:56.769Z,20.40
2019-04-22T23:33:13.209Z,20.30
2019-04-22T23:35:26.956Z,20.40
2019-04-22T23:37:39.609Z,20.30
2019-04-22T23:39:56.116Z,20.30
2019-04-22T23:41:58.672Z,20.20
2019-04-22T23:44:08.296Z,20.20
2019-04-22T23:46:05.658Z,20.10
2019-04-22T23:48:08.303Z,20.10
2019-04-22T23:50:26.667Z,20.10
2019-04-22T23:52:30.447Z,20.00
2019-04-22T23:54:44.888Z,20.00
2019-04-22T23:56:43.603Z,19.90
2019-04-22T23:59:14.745Z,19.90
